Mouthcard, Kentucky
Current Conditions -  °F | °C
As of 5:35 AM on Monday 22 Dec 2014 (Local Time) from KPBX Reporting Station
Overcast Overcast  
Wind Chill: 35°   Ceiling: 6500
Heat Index: 39°   Visibility: 10mi
Dew Point: 33°   Wind: 6mph
Humidity: 77%   Direction: 140°SE
Pressure: 30.02"   Gusts: NA
Location:  37.38°N, 82.26°W
Report Text: KPBX 221035Z AUTO 14005KT 10SM OVC065 04/00 A3002 RMK AO2 T00400003
Loading
Personal Weather Stations






























Interactive Weather Map New forecast layout! Learn more

10-Day Weather Forecast

Advertisements
Track Severe Weather on mobile